sensor_id;sensor_type;location;lat;lon;timestamp;pressure;altitude;pressure_sealevel;temperature
15079;BMP180;6932;51.438;5.470;2022-07-23T00:02:09;101504.00;;;24.00
15079;BMP180;6932;51.438;5.470;2022-07-23T00:04:35;101508.00;;;24.00
15079;BMP180;6932;51.438;5.470;2022-07-23T00:07:00;101498.00;;;24.00
15079;BMP180;6932;51.438;5.470;2022-07-23T00:09:26;101504.00;;;24.00
15079;BMP180;6932;51.438;5.470;2022-07-23T00:11:54;101504.00;;;24.00
15079;BMP180;6932;51.438;5.470;2022-07-23T00:14:19;101495.00;;;24.00
15079;BMP180;6932;51.438;5.470;2022-07-23T00:16:45;101494.00;;;23.90
15079;BMP180;6932;51.438;5.470;2022-07-23T00:19:11;101498.00;;;23.90
15079;BMP180;6932;51.438;5.470;2022-07-23T00:21:36;101499.00;;;23.90
15079;BMP180;6932;51.438;5.470;2022-07-23T00:24:02;101503.00;;;23.90
15079;BMP180;6932;51.438;5.470;2022-07-23T00:26:28;101502.00;;;23.90
15079;BMP180;6932;51.438;5.470;2022-07-23T00:28:54;101499.00;;;23.90
15079;BMP180;6932;51.438;5.470;2022-07-23T00:31:19;101503.00;;;23.90
15079;BMP180;6932;51.438;5.470;2022-07-23T00:33:45;101494.00;;;23.90
15079;BMP180;6932;51.438;5.470;2022-07-23T00:36:11;101497.00;;;23.80
15079;BMP180;6932;51.438;5.470;2022-07-23T00:38:37;101501.00;;;23.80
15079;BMP180;6932;51.438;5.470;2022-07-23T00:41:03;101489.00;;;23.80
15079;BMP180;6932;51.438;5.470;2022-07-23T00:43:28;101499.00;;;23.80
15079;BMP180;6932;51.438;5.470;2022-07-23T00:45:54;101496.00;;;23.80
15079;BMP180;6932;51.438;5.470;2022-07-23T00:48:20;101501.00;;;23.80
15079;BMP180;6932;51.438;5.470;2022-07-23T00:50:46;101499.00;;;23.80
15079;BMP180;6932;51.438;5.470;2022-07-23T00:53:12;101487.00;;;23.80
15079;BMP180;6932;51.438;5.470;2022-07-23T00:55:39;101489.00;;;23.80
15079;BMP180;6932;51.438;5.470;2022-07-23T00:58:05;101489.00;;;23.70
15079;BMP180;6932;51.438;5.470;2022-07-23T01:00:31;101494.00;;;23.70
15079;BMP180;6932;51.438;5.470;2022-07-23T01:02:57;101486.00;;;23.70
15079;BMP180;6932;51.438;5.470;2022-07-23T01:05:23;101491.00;;;23.70
15079;BMP180;6932;51.438;5.470;2022-07-23T01:07:50;101482.00;;;23.70
15079;BMP180;6932;51.438;5.470;2022-07-23T01:10:17;101483.00;;;23.70
15079;BMP180;6932;51.438;5.470;2022-07-23T01:13:06;101487.00;;;23.60
15079;BMP180;6932;51.438;5.470;2022-07-23T01:15:35;101482.00;;;23.60
15079;BMP180;6932;51.438;5.470;2022-07-23T01:18:02;101488.00;;;23.60
15079;BMP180;6932;51.438;5.470;2022-07-23T01:20:29;101487.00;;;23.60
15079;BMP180;6932;51.438;5.470;2022-07-23T01:22:55;101486.00;;;23.60
15079;BMP180;6932;51.438;5.470;2022-07-23T01:25:22;101486.00;;;23.60
15079;BMP180;6932;51.438;5.470;2022-07-23T01:27:49;101483.00;;;23.60
15079;BMP180;6932;51.438;5.470;2022-07-23T01:30:15;101485.00;;;23.50
15079;BMP180;6932;51.438;5.470;2022-07-23T01:32:41;101486.00;;;23.50
15079;BMP180;6932;51.438;5.470;2022-07-23T01:35:08;101480.00;;;23.50
15079;BMP180;6932;51.438;5.470;2022-07-23T01:37:34;101482.00;;;23.50
15079;BMP180;6932;51.438;5.470;2022-07-23T01:39:59;101483.00;;;23.50
15079;BMP180;6932;51.438;5.470;2022-07-23T01:42:25;101484.00;;;23.50
15079;BMP180;6932;51.438;5.470;2022-07-23T01:44:51;101478.00;;;23.50
15079;BMP180;6932;51.438;5.470;2022-07-23T01:47:17;101477.00;;;23.50
15079;BMP180;6932;51.438;5.470;2022-07-23T01:49:42;101488.00;;;23.40
15079;BMP180;6932;51.438;5.470;2022-07-23T01:52:08;101477.00;;;23.40
15079;BMP180;6932;51.438;5.470;2022-07-23T01:54:39;101474.00;;;23.30
15079;BMP180;6932;51.438;5.470;2022-07-23T01:57:06;101472.00;;;23.30
15079;BMP180;6932;51.438;5.470;2022-07-23T01:59:32;101464.00;;;23.30
15079;BMP180;6932;51.438;5.470;2022-07-23T02:01:58;101462.00;;;23.30
15079;BMP180;6932;51.438;5.470;2022-07-23T02:04:25;101475.00;;;23.30
15079;BMP180;6932;51.438;5.470;2022-07-23T02:06:52;101464.00;;;23.20
15079;BMP180;6932;51.438;5.470;2022-07-23T02:09:19;101466.00;;;23.20
15079;BMP180;6932;51.438;5.470;2022-07-23T02:11:44;101461.00;;;23.20
15079;BMP180;6932;51.438;5.470;2022-07-23T02:14:10;101460.00;;;23.20
15079;BMP180;6932;51.438;5.470;2022-07-23T02:16:36;101465.00;;;23.20
15079;BMP180;6932;51.438;5.470;2022-07-23T02:19:03;101457.00;;;23.20
15079;BMP180;6932;51.438;5.470;2022-07-23T02:21:29;101470.00;;;23.20
15079;BMP180;6932;51.438;5.470;2022-07-23T02:23:54;101463.00;;;23.10
15079;BMP180;6932;51.438;5.470;2022-07-23T02:26:20;101473.00;;;23.10
15079;BMP180;6932;51.438;5.470;2022-07-23T02:28:46;101456.00;;;23.10
15079;BMP180;6932;51.438;5.470;2022-07-23T02:31:12;101462.00;;;23.00
15079;BMP180;6932;51.438;5.470;2022-07-23T02:33:37;101451.00;;;23.00
15079;BMP180;6932;51.438;5.470;2022-07-23T02:36:03;101464.00;;;23.00
15079;BMP180;6932;51.438;5.470;2022-07-23T02:38:30;101466.00;;;23.00
15079;BMP180;6932;51.438;5.470;2022-07-23T02:40:56;101466.00;;;23.00
15079;BMP180;6932;51.438;5.470;2022-07-23T02:43:21;101470.00;;;23.00
15079;BMP180;6932;51.438;5.470;2022-07-23T02:45:47;101462.00;;;23.00
15079;BMP180;6932;51.438;5.470;2022-07-23T02:48:13;101469.00;;;23.00
15079;BMP180;6932;51.438;5.470;2022-07-23T02:50:39;101463.00;;;22.90
15079;BMP180;6932;51.438;5.470;2022-07-23T02:53:05;101467.00;;;22.90
15079;BMP180;6932;51.438;5.470;2022-07-23T02:55:30;101458.00;;;22.90
15079;BMP180;6932;51.438;5.470;2022-07-23T02:57:57;101463.00;;;22.90
15079;BMP180;6932;51.438;5.470;2022-07-23T03:00:23;101464.00;;;22.90
15079;BMP180;6932;51.438;5.470;2022-07-23T03:02:49;101465.00;;;22.90
15079;BMP180;6932;51.438;5.470;2022-07-23T03:05:14;101467.00;;;22.90
15079;BMP180;6932;51.438;5.470;2022-07-23T03:07:40;101460.00;;;22.90
15079;BMP180;6932;51.438;5.470;2022-07-23T03:10:06;101464.00;;;22.90
15079;BMP180;6932;51.438;5.470;2022-07-23T03:12:32;101457.00;;;22.90
15079;BMP180;6932;51.438;5.470;2022-07-23T03:14:58;101469.00;;;22.90
15079;BMP180;6932;51.438;5.470;2022-07-23T03:17:24;101476.00;;;22.90
15079;BMP180;6932;51.438;5.470;2022-07-23T03:19:49;101476.00;;;22.90
15079;BMP180;6932;51.438;5.470;2022-07-23T03:22:15;101476.00;;;22.90
15079;BMP180;6932;51.438;5.470;2022-07-23T03:24:41;101481.00;;;22.90
15079;BMP180;6932;51.438;5.470;2022-07-23T03:27:27;101487.00;;;22.90
15079;BMP180;6932;51.438;5.470;2022-07-23T03:29:57;101486.00;;;22.90
15079;BMP180;6932;51.438;5.470;2022-07-23T03:32:24;101487.00;;;22.80
15079;BMP180;6932;51.438;5.470;2022-07-23T03:34:52;101491.00;;;22.80
15079;BMP180;6932;51.438;5.470;2022-07-23T03:37:18;101488.00;;;22.80
15079;BMP180;6932;51.438;5.470;2022-07-23T03:39:44;101488.00;;;22.80
15079;BMP180;6932;51.438;5.470;2022-07-23T03:42:10;101491.00;;;22.80
15079;BMP180;6932;51.438;5.470;2022-07-23T03:44:36;101494.00;;;22.70
15079;BMP180;6932;51.438;5.470;2022-07-23T03:47:06;101488.00;;;22.70
15079;BMP180;6932;51.438;5.470;2022-07-23T03:49:32;101486.00;;;22.70
15079;BMP180;6932;51.438;5.470;2022-07-23T03:51:58;101491.00;;;22.70
15079;BMP180;6932;51.438;5.470;2022-07-23T03:54:24;101494.00;;;22.70
15079;BMP180;6932;51.438;5.470;2022-07-23T03:56:50;101486.00;;;22.60
15079;BMP180;6932;51.438;5.470;2022-07-23T03:59:16;101490.00;;;22.70
15079;BMP180;6932;51.438;5.470;2022-07-23T04:01:42;101485.00;;;22.70
15079;BMP180;6932;51.438;5.470;2022-07-23T04:04:07;101485.00;;;22.70
15079;BMP180;6932;51.438;5.470;2022-07-23T04:06:35;101486.00;;;22.70
15079;BMP180;6932;51.438;5.470;2022-07-23T04:09:01;101489.00;;;22.60
15079;BMP180;6932;51.438;5.470;2022-07-23T04:11:27;101489.00;;;22.60
15079;BMP180;6932;51.438;5.470;2022-07-23T04:13:52;101490.00;;;22.60
15079;BMP180;6932;51.438;5.470;2022-07-23T04:16:18;101492.00;;;22.50
15079;BMP180;6932;51.438;5.470;2022-07-23T04:18:44;101493.00;;;22.50
15079;BMP180;6932;51.438;5.470;2022-07-23T04:21:10;101499.00;;;22.60
15079;BMP180;6932;51.438;5.470;2022-07-23T04:23:35;101496.00;;;22.60
15079;BMP180;6932;51.438;5.470;2022-07-23T04:26:01;101502.00;;;22.60
15079;BMP180;6932;51.438;5.470;2022-07-23T04:28:27;101512.00;;;22.60
15079;BMP180;6932;51.438;5.470;2022-07-23T04:30:56;101502.00;;;22.70
15079;BMP180;6932;51.438;5.470;2022-07-23T04:33:21;101506.00;;;22.70
15079;BMP180;6932;51.438;5.470;2022-07-23T04:35:47;101509.00;;;22.70
15079;BMP180;6932;51.438;5.470;2022-07-23T04:38:13;101508.00;;;22.80
15079;BMP180;6932;51.438;5.470;2022-07-23T04:40:39;101512.00;;;22.80
15079;BMP180;6932;51.438;5.470;2022-07-23T04:43:04;101515.00;;;22.80
15079;BMP180;6932;51.438;5.470;2022-07-23T04:45:30;101525.00;;;22.90
15079;BMP180;6932;51.438;5.470;2022-07-23T04:47:56;101516.00;;;22.90
15079;BMP180;6932;51.438;5.470;2022-07-23T04:50:22;101518.00;;;23.00
15079;BMP180;6932;51.438;5.470;2022-07-23T04:52:48;101521.00;;;23.00
15079;BMP180;6932;51.438;5.470;2022-07-23T04:55:15;101515.00;;;23.10
15079;BMP180;6932;51.438;5.470;2022-07-23T04:57:41;101522.00;;;23.20
15079;BMP180;6932;51.438;5.470;2022-07-23T05:00:08;101527.00;;;23.30
15079;BMP180;6932;51.438;5.470;2022-07-23T05:02:34;101527.00;;;23.30
15079;BMP180;6932;51.438;5.470;2022-07-23T05:04:59;101532.00;;;23.40
15079;BMP180;6932;51.438;5.470;2022-07-23T05:07:25;101534.00;;;23.50
15079;BMP180;6932;51.438;5.470;2022-07-23T05:09:51;101526.00;;;23.60
15079;BMP180;6932;51.438;5.470;2022-07-23T05:12:16;101528.00;;;23.70
15079;BMP180;6932;51.438;5.470;2022-07-23T05:14:42;101527.00;;;23.80
15079;BMP180;6932;51.438;5.470;2022-07-23T05:17:08;101533.00;;;23.80
15079;BMP180;6932;51.438;5.470;2022-07-23T05:19:35;101531.00;;;23.90
15079;BMP180;6932;51.438;5.470;2022-07-23T05:22:01;101529.00;;;23.90
15079;BMP180;6932;51.438;5.470;2022-07-23T05:24:27;101528.00;;;23.90
15079;BMP180;6932;51.438;5.470;2022-07-23T05:26:53;101531.00;;;23.90
15079;BMP180;6932;51.438;5.470;2022-07-23T05:29:19;101535.00;;;23.90
15079;BMP180;6932;51.438;5.470;2022-07-23T05:31:44;101534.00;;;24.00
15079;BMP180;6932;51.438;5.470;2022-07-23T05:34:10;101539.00;;;24.10
15079;BMP180;6932;51.438;5.470;2022-07-23T05:36:36;101538.00;;;24.20
15079;BMP180;6932;51.438;5.470;2022-07-23T05:39:02;101542.00;;;24.30
15079;BMP180;6932;51.438;5.470;2022-07-23T05:41:28;101539.00;;;24.40
15079;BMP180;6932;51.438;5.470;2022-07-23T05:43:54;101544.00;;;24.50
15079;BMP180;6932;51.438;5.470;2022-07-23T05:46:20;101541.00;;;24.50
15079;BMP180;6932;51.438;5.470;2022-07-23T05:48:46;101548.00;;;24.60
15079;BMP180;6932;51.438;5.470;2022-07-23T05:51:20;101548.00;;;24.70
15079;BMP180;6932;51.438;5.470;2022-07-23T05:53:46;101558.00;;;24.80
15079;BMP180;6932;51.438;5.470;2022-07-23T05:56:12;101550.00;;;24.80
15079;BMP180;6932;51.438;5.470;2022-07-23T05:58:38;101561.00;;;24.90
15079;BMP180;6932;51.438;5.470;2022-07-23T06:01:04;101562.00;;;24.90
15079;BMP180;6932;51.438;5.470;2022-07-23T06:03:30;101557.00;;;25.00
15079;BMP180;6932;51.438;5.470;2022-07-23T06:05:55;101563.00;;;25.00
15079;BMP180;6932;51.438;5.470;2022-07-23T06:08:21;101565.00;;;25.00
15079;BMP180;6932;51.438;5.470;2022-07-23T06:10:47;101565.00;;;25.00
15079;BMP180;6932;51.438;5.470;2022-07-23T06:13:12;101575.00;;;25.10
15079;BMP180;6932;51.438;5.470;2022-07-23T06:15:38;101584.00;;;25.20
15079;BMP180;6932;51.438;5.470;2022-07-23T06:18:04;101577.00;;;25.30
15079;BMP180;6932;51.438;5.470;2022-07-23T06:20:30;101571.00;;;25.30
15079;BMP180;6932;51.438;5.470;2022-07-23T06:22:56;101567.00;;;25.40
15079;BMP180;6932;51.438;5.470;2022-07-23T06:25:21;101566.00;;;25.50
15079;BMP180;6932;51.438;5.470;2022-07-23T06:27:47;101569.00;;;25.50
15079;BMP180;6932;51.438;5.470;2022-07-23T06:30:14;101561.00;;;25.50
15079;BMP180;6932;51.438;5.470;2022-07-23T06:32:41;101564.00;;;25.60
15079;BMP180;6932;51.438;5.470;2022-07-23T06:35:07;101565.00;;;25.60
15079;BMP180;6932;51.438;5.470;2022-07-23T06:37:33;101570.00;;;25.60
15079;BMP180;6932;51.438;5.470;2022-07-23T06:39:59;101573.00;;;25.60
15079;BMP180;6932;51.438;5.470;2022-07-23T06:42:24;101577.00;;;25.70
15079;BMP180;6932;51.438;5.470;2022-07-23T06:44:50;101581.00;;;25.70
15079;BMP180;6932;51.438;5.470;2022-07-23T06:47:16;101581.00;;;25.80
15079;BMP180;6932;51.438;5.470;2022-07-23T06:49:42;101575.00;;;25.80
15079;BMP180;6932;51.438;5.470;2022-07-23T06:52:08;101583.00;;;25.90
15079;BMP180;6932;51.438;5.470;2022-07-23T06:54:34;101577.00;;;26.00
15079;BMP180;6932;51.438;5.470;2022-07-23T06:57:00;101585.00;;;26.10
15079;BMP180;6932;51.438;5.470;2022-07-23T06:59:26;101575.00;;;26.20
15079;BMP180;6932;51.438;5.470;2022-07-23T07:01:51;101570.00;;;26.30
15079;BMP180;6932;51.438;5.470;2022-07-23T07:04:17;101578.00;;;26.40
15079;BMP180;6932;51.438;5.470;2022-07-23T07:06:43;101573.00;;;26.50
15079;BMP180;6932;51.438;5.470;2022-07-23T07:09:08;101570.00;;;26.60
15079;BMP180;6932;51.438;5.470;2022-07-23T07:11:34;101573.00;;;26.70
15079;BMP180;6932;51.438;5.470;2022-07-23T07:14:00;101580.00;;;26.80
15079;BMP180;6932;51.438;5.470;2022-07-23T07:16:26;101572.00;;;26.90
15079;BMP180;6932;51.438;5.470;2022-07-23T07:18:51;101577.00;;;27.00
15079;BMP180;6932;51.438;5.470;2022-07-23T07:21:17;101572.00;;;27.10
15079;BMP180;6932;51.438;5.470;2022-07-23T07:23:43;101580.00;;;27.10
15079;BMP180;6932;51.438;5.470;2022-07-23T07:26:08;101577.00;;;27.10
15079;BMP180;6932;51.438;5.470;2022-07-23T07:28:34;101578.00;;;27.10
15079;BMP180;6932;51.438;5.470;2022-07-23T07:31:00;101590.00;;;27.10
15079;BMP180;6932;51.438;5.470;2022-07-23T07:33:26;101595.00;;;27.20
15079;BMP180;6932;51.438;5.470;2022-07-23T07:35:51;101587.00;;;27.30
15079;BMP180;6932;51.438;5.470;2022-07-23T07:38:17;101601.00;;;27.40
15079;BMP180;6932;51.438;5.470;2022-07-23T07:40:43;101603.00;;;27.40
15079;BMP180;6932;51.438;5.470;2022-07-23T07:43:09;101586.00;;;27.50
15079;BMP180;6932;51.438;5.470;2022-07-23T07:45:34;101597.00;;;27.60
15079;BMP180;6932;51.438;5.470;2022-07-23T07:48:00;101597.00;;;27.70
15079;BMP180;6932;51.438;5.470;2022-07-23T07:50:26;101607.00;;;27.80
15079;BMP180;6932;51.438;5.470;2022-07-23T07:52:52;101608.00;;;27.90
15079;BMP180;6932;51.438;5.470;2022-07-23T07:55:17;101595.00;;;28.00
15079;BMP180;6932;51.438;5.470;2022-07-23T07:57:43;101609.00;;;28.10
15079;BMP180;6932;51.438;5.470;2022-07-23T08:00:10;101599.00;;;28.20
15079;BMP180;6932;51.438;5.470;2022-07-23T08:02:51;101598.00;;;28.30
15079;BMP180;6932;51.438;5.470;2022-07-23T08:05:23;101592.00;;;28.40
15079;BMP180;6932;51.438;5.470;2022-07-23T08:07:49;101603.00;;;28.50
15079;BMP180;6932;51.438;5.470;2022-07-23T08:10:16;101601.00;;;28.70
15079;BMP180;6932;51.438;5.470;2022-07-23T08:12:47;101606.00;;;28.90
15079;BMP180;6932;51.438;5.470;2022-07-23T08:15:16;101595.00;;;29.00
15079;BMP180;6932;51.438;5.470;2022-07-23T08:17:44;101604.00;;;29.20
15079;BMP180;6932;51.438;5.470;2022-07-23T08:20:13;101605.00;;;29.40
15079;BMP180;6932;51.438;5.470;2022-07-23T08:23:02;101604.00;;;29.60
15079;BMP180;6932;51.438;5.470;2022-07-23T08:25:35;101604.00;;;29.70
15079;BMP180;6932;51.438;5.470;2022-07-23T08:28:05;101606.00;;;29.80
15079;BMP180;6932;51.438;5.470;2022-07-23T08:30:32;101624.00;;;30.00
15079;BMP180;6932;51.438;5.470;2022-07-23T08:33:09;101620.00;;;30.00
15079;BMP180;6932;51.438;5.470;2022-07-23T08:35:48;101623.00;;;30.00
15079;BMP180;6932;51.438;5.470;2022-07-23T08:38:18;101609.00;;;30.00
15079;BMP180;6932;51.438;5.470;2022-07-23T08:40:51;101614.00;;;30.00
15079;BMP180;6932;51.438;5.470;2022-07-23T08:43:25;101619.00;;;30.10
15079;BMP180;6932;51.438;5.470;2022-07-23T08:45:56;101626.00;;;30.20
15079;BMP180;6932;51.438;5.470;2022-07-23T08:48:25;101632.00;;;30.30
15079;BMP180;6932;51.438;5.470;2022-07-23T08:50:57;101624.00;;;30.40
15079;BMP180;6932;51.438;5.470;2022-07-23T08:53:26;101626.00;;;30.50
15079;BMP180;6932;51.438;5.470;2022-07-23T08:55:55;101631.00;;;30.50
15079;BMP180;6932;51.438;5.470;2022-07-23T08:58:24;101634.00;;;30.50
15079;BMP180;6932;51.438;5.470;2022-07-23T09:00:50;101628.00;;;30.50
15079;BMP180;6932;51.438;5.470;2022-07-23T09:03:21;101623.00;;;30.50
15079;BMP180;6932;51.438;5.470;2022-07-23T09:05:54;101629.00;;;30.60
15079;BMP180;6932;51.438;5.470;2022-07-23T09:11:07;101626.00;;;30.70
15079;BMP180;6932;51.438;5.470;2022-07-23T09:13:50;101628.00;;;30.80
15079;BMP180;6932;51.438;5.470;2022-07-23T09:16:29;101624.00;;;30.80
15079;BMP180;6932;51.438;5.470;2022-07-23T09:19:04;101623.00;;;30.80
15079;BMP180;6932;51.438;5.470;2022-07-23T09:21:38;101618.00;;;30.80
15079;BMP180;6932;51.438;5.470;2022-07-23T09:24:09;101614.00;;;30.80
15079;BMP180;6932;51.438;5.470;2022-07-23T09:26:46;101605.00;;;30.80
15079;BMP180;6932;51.438;5.470;2022-07-23T09:32:00;101614.00;;;30.90
15079;BMP180;6932;51.438;5.470;2022-07-23T09:34:27;101621.00;;;31.00
15079;BMP180;6932;51.438;5.470;2022-07-23T09:36:57;101629.00;;;31.00
15079;BMP180;6932;51.438;5.470;2022-07-23T09:39:32;101627.00;;;31.10
15079;BMP180;6932;51.438;5.470;2022-07-23T09:44:51;101629.00;;;31.10
15079;BMP180;6932;51.438;5.470;2022-07-23T09:47:18;101645.00;;;31.10
15079;BMP180;6932;51.438;5.470;2022-07-23T09:50:08;101642.00;;;31.10
15079;BMP180;6932;51.438;5.470;2022-07-23T09:52:45;101635.00;;;31.10
15079;BMP180;6932;51.438;5.470;2022-07-23T09:55:14;101637.00;;;31.10
15079;BMP180;6932;51.438;5.470;2022-07-23T09:57:44;101632.00;;;31.20
15079;BMP180;6932;51.438;5.470;2022-07-23T10:00:12;101636.00;;;31.30
15079;BMP180;6932;51.438;5.470;2022-07-23T10:02:40;101637.00;;;31.30
15079;BMP180;6932;51.438;5.470;2022-07-23T10:05:07;101636.00;;;31.30
15079;BMP180;6932;51.438;5.470;2022-07-23T10:07:37;101638.00;;;31.40
15079;BMP180;6932;51.438;5.470;2022-07-23T10:10:06;101646.00;;;31.30
15079;BMP180;6932;51.438;5.470;2022-07-23T10:12:33;101635.00;;;31.40
15079;BMP180;6932;51.438;5.470;2022-07-23T10:15:07;101631.00;;;31.40
15079;BMP180;6932;51.438;5.470;2022-07-23T10:17:34;101628.00;;;31.40
15079;BMP180;6932;51.438;5.470;2022-07-23T10:20:01;101634.00;;;31.40
15079;BMP180;6932;51.438;5.470;2022-07-23T10:22:41;101632.00;;;31.40
15079;BMP180;6932;51.438;5.470;2022-07-23T10:25:32;101623.00;;;31.40
15079;BMP180;6932;51.438;5.470;2022-07-23T10:28:31;101629.00;;;31.50
15079;BMP180;6932;51.438;5.470;2022-07-23T10:31:38;101627.00;;;31.50
15079;BMP180;6932;51.438;5.470;2022-07-23T10:37:22;101636.00;;;31.50
15079;BMP180;6932;51.438;5.470;2022-07-23T10:40:21;101630.00;;;31.50
15079;BMP180;6932;51.438;5.470;2022-07-23T10:42:52;101631.00;;;31.50
15079;BMP180;6932;51.438;5.470;2022-07-23T10:45:35;101638.00;;;31.50
15079;BMP180;6932;51.438;5.470;2022-07-23T10:48:23;101631.00;;;31.60
15079;BMP180;6932;51.438;5.470;2022-07-23T10:51:13;101631.00;;;31.60
15079;BMP180;6932;51.438;5.470;2022-07-23T10:59:20;101652.00;;;32.00
15079;BMP180;6932;51.438;5.470;2022-07-23T11:01:46;101648.00;;;32.10
15079;BMP180;6932;51.438;5.470;2022-07-23T11:04:12;101653.00;;;32.20
15079;BMP180;6932;51.438;5.470;2022-07-23T11:09:42;101657.00;;;32.20
15079;BMP180;6932;51.438;5.470;2022-07-23T11:15:11;101649.00;;;32.10
15079;BMP180;6932;51.438;5.470;2022-07-23T11:17:59;101637.00;;;32.00
15079;BMP180;6932;51.438;5.470;2022-07-23T11:20:26;101646.00;;;31.90
15079;BMP180;6932;51.438;5.470;2022-07-23T11:22:59;101642.00;;;31.90
15079;BMP180;6932;51.438;5.470;2022-07-23T11:27:51;101650.00;;;31.90
15079;BMP180;6932;51.438;5.470;2022-07-23T11:30:47;101647.00;;;31.90
15079;BMP180;6932;51.438;5.470;2022-07-23T11:35:45;101653.00;;;32.00
15079;BMP180;6932;51.438;5.470;2022-07-23T11:38:22;101643.00;;;32.10
15079;BMP180;6932;51.438;5.470;2022-07-23T11:40:54;101629.00;;;32.20
15079;BMP180;6932;51.438;5.470;2022-07-23T11:43:21;101637.00;;;32.20
15079;BMP180;6932;51.438;5.470;2022-07-23T11:45:51;101645.00;;;32.30
15079;BMP180;6932;51.438;5.470;2022-07-23T11:48:27;101639.00;;;32.30
15079;BMP180;6932;51.438;5.470;2022-07-23T11:50:55;101637.00;;;32.30
15079;BMP180;6932;51.438;5.470;2022-07-23T11:53:33;101637.00;;;32.40
15079;BMP180;6932;51.438;5.470;2022-07-23T11:56:10;101637.00;;;32.30
15079;BMP180;6932;51.438;5.470;2022-07-23T11:58:37;101651.00;;;32.30
15079;BMP180;6932;51.438;5.470;2022-07-23T12:01:03;101639.00;;;32.30
15079;BMP180;6932;51.438;5.470;2022-07-23T12:03:29;101644.00;;;32.30
15079;BMP180;6932;51.438;5.470;2022-07-23T12:06:00;101644.00;;;32.30
15079;BMP180;6932;51.438;5.470;2022-07-23T12:08:26;101650.00;;;32.20
15079;BMP180;6932;51.438;5.470;2022-07-23T12:10:51;101644.00;;;32.20
15079;BMP180;6932;51.438;5.470;2022-07-23T12:13:20;101644.00;;;32.20
15079;BMP180;6932;51.438;5.470;2022-07-23T12:15:53;101640.00;;;32.20
15079;BMP180;6932;51.438;5.470;2022-07-23T12:18:25;101638.00;;;32.20
15079;BMP180;6932;51.438;5.470;2022-07-23T12:20:54;101639.00;;;32.20
15079;BMP180;6932;51.438;5.470;2022-07-23T12:23:25;101637.00;;;32.20
15079;BMP180;6932;51.438;5.470;2022-07-23T12:25:52;101635.00;;;32.10
15079;BMP180;6932;51.438;5.470;2022-07-23T12:28:31;101634.00;;;32.10
15079;BMP180;6932;51.438;5.470;2022-07-23T12:30:59;101637.00;;;32.10
15079;BMP180;6932;51.438;5.470;2022-07-23T12:33:28;101635.00;;;32.10
15079;BMP180;6932;51.438;5.470;2022-07-23T12:35:57;101626.00;;;32.10
15079;BMP180;6932;51.438;5.470;2022-07-23T12:38:28;101624.00;;;32.00
15079;BMP180;6932;51.438;5.470;2022-07-23T12:40:57;101621.00;;;32.00
15079;BMP180;6932;51.438;5.470;2022-07-23T12:43:37;101617.00;;;32.00
15079;BMP180;6932;51.438;5.470;2022-07-23T12:46:15;101618.00;;;31.90
15079;BMP180;6932;51.438;5.470;2022-07-23T12:51:21;101601.00;;;31.70
15079;BMP180;6932;51.438;5.470;2022-07-23T12:53:52;101589.00;;;31.60
15079;BMP180;6932;51.438;5.470;2022-07-23T12:56:34;101601.00;;;31.40
15079;BMP180;6932;51.438;5.470;2022-07-23T12:59:12;101605.00;;;31.20
15079;BMP180;6932;51.438;5.470;2022-07-23T13:01:55;101604.00;;;31.00
15079;BMP180;6932;51.438;5.470;2022-07-23T13:04:25;101601.00;;;30.80
15079;BMP180;6932;51.438;5.470;2022-07-23T13:06:59;101606.00;;;30.70
15079;BMP180;6932;51.438;5.470;2022-07-23T13:09:30;101613.00;;;30.70
15079;BMP180;6932;51.438;5.470;2022-07-23T13:11:57;101598.00;;;30.70
15079;BMP180;6932;51.438;5.470;2022-07-23T13:14:25;101596.00;;;30.70
15079;BMP180;6932;51.438;5.470;2022-07-23T13:16:52;101604.00;;;30.70
15079;BMP180;6932;51.438;5.470;2022-07-23T13:19:19;101605.00;;;30.70
15079;BMP180;6932;51.438;5.470;2022-07-23T13:21:47;101609.00;;;30.80
15079;BMP180;6932;51.438;5.470;2022-07-23T13:24:15;101603.00;;;30.90
15079;BMP180;6932;51.438;5.470;2022-07-23T13:26:41;101594.00;;;31.00
15079;BMP180;6932;51.438;5.470;2022-07-23T13:29:07;101597.00;;;31.10
15079;BMP180;6932;51.438;5.470;2022-07-23T13:31:35;101599.00;;;31.20
15079;BMP180;6932;51.438;5.470;2022-07-23T13:34:02;101590.00;;;31.20
15079;BMP180;6932;51.438;5.470;2022-07-23T13:36:28;101586.00;;;31.20
15079;BMP180;6932;51.438;5.470;2022-07-23T13:38:53;101588.00;;;31.20
15079;BMP180;6932;51.438;5.470;2022-07-23T13:41:19;101590.00;;;31.20
15079;BMP180;6932;51.438;5.470;2022-07-23T13:43:45;101587.00;;;31.30
15079;BMP180;6932;51.438;5.470;2022-07-23T13:46:11;101583.00;;;31.30
15079;BMP180;6932;51.438;5.470;2022-07-23T13:48:37;101583.00;;;31.40
15079;BMP180;6932;51.438;5.470;2022-07-23T13:51:03;101586.00;;;31.50
15079;BMP180;6932;51.438;5.470;2022-07-23T13:53:29;101568.00;;;31.50
15079;BMP180;6932;51.438;5.470;2022-07-23T13:55:55;101567.00;;;31.60
15079;BMP180;6932;51.438;5.470;2022-07-23T13:58:22;101574.00;;;31.70
15079;BMP180;6932;51.438;5.470;2022-07-23T14:00:51;101563.00;;;31.80
15079;BMP180;6932;51.438;5.470;2022-07-23T14:03:19;101564.00;;;31.90
15079;BMP180;6932;51.438;5.470;2022-07-23T14:05:45;101572.00;;;31.90
15079;BMP180;6932;51.438;5.470;2022-07-23T14:08:11;101578.00;;;31.90
15079;BMP180;6932;51.438;5.470;2022-07-23T14:10:37;101568.00;;;31.90
15079;BMP180;6932;51.438;5.470;2022-07-23T14:13:03;101573.00;;;31.90
15079;BMP180;6932;51.438;5.470;2022-07-23T14:15:31;101568.00;;;31.80
15079;BMP180;6932;51.438;5.470;2022-07-23T14:17:57;101573.00;;;31.80
15079;BMP180;6932;51.438;5.470;2022-07-23T14:20:24;101583.00;;;31.80
15079;BMP180;6932;51.438;5.470;2022-07-23T14:22:51;101573.00;;;31.90
15079;BMP180;6932;51.438;5.470;2022-07-23T14:25:17;101571.00;;;31.90
15079;BMP180;6932;51.438;5.470;2022-07-23T14:27:43;101582.00;;;31.90
15079;BMP180;6932;51.438;5.470;2022-07-23T14:30:11;101581.00;;;32.00
15079;BMP180;6932;51.438;5.470;2022-07-23T14:32:37;101580.00;;;32.00
15079;BMP180;6932;51.438;5.470;2022-07-23T14:35:04;101583.00;;;32.00
15079;BMP180;6932;51.438;5.470;2022-07-23T14:37:30;101588.00;;;32.00
15079;BMP180;6932;51.438;5.470;2022-07-23T14:39:56;101585.00;;;32.00
15079;BMP180;6932;51.438;5.470;2022-07-23T14:42:22;101589.00;;;32.00
15079;BMP180;6932;51.438;5.470;2022-07-23T14:44:47;101591.00;;;31.90
15079;BMP180;6932;51.438;5.470;2022-07-23T14:47:13;101591.00;;;31.90